Pagina principală
METAR-TAF:

METAR-TAF

Aeroporturi :

Hebron Municipal Airport

Hebron, Nebraska, Statele Unite ale Americii

Latitudine: 40-09-08N, longitudine: 097-35-13W, elevație: 447 m

Observații meteo curente

Raportul a fost făcut în urmă cu 21 de minute, la 14:35 UTC
Vânt 3 kt de la Sud-vest
Temperatură 1°C
Umiditate 80%
Presiune 1018 hPa
Vizibilitate: 16.1 km
Cer senin

METAR: KHJH 241435Z AUTO 22003KT 10SM CLR 01/M02 A3005 RMK AO2 T00061017

Ora: 08:56 (14:56 UTC)


TAF: lipsă

Observații și prognoze meteo pentru peste 4.000 de aeroporturi (rapoarte METAR și TAF).

Stațiile disponibile sunt reprezentate pe hartă prin puncte galbene și roșii.

Țineți indicatorul mouse-ului pe punctul dorit pentru a vedea denumirea stației.

Apoi, faceți clic pentru a vedea observațiile și prognozele meteorologice.

Pentru a schimba harta: Pentru mărire, faceți clic pe butoanele verzi cu cruce neagră; pentru micșorare, pe butonul verde cu o liniuță; pentru hărți învecinate, pe săgețile verzi.


METAR-TAF: